sensor_id;sensor_type;location;lat;lon;timestamp;pressure;altitude;pressure_sealevel;temperature;humidity
78584;BME280;67880;46.082;18.234;2023-06-10T00:00:29;99175.78;;;19.24;77.40
78584;BME280;67880;46.082;18.234;2023-06-10T00:01:03;99171.63;;;19.21;77.30
78584;BME280;67880;46.082;18.234;2023-06-10T00:01:36;99164.59;;;19.14;77.59
78584;BME280;67880;46.082;18.234;2023-06-10T00:02:08;99163.53;;;19.15;77.99
78584;BME280;67880;46.082;18.234;2023-06-10T00:02:41;99170.41;;;19.17;77.82
78584;BME280;67880;46.082;18.234;2023-06-10T00:03:14;99167.44;;;19.19;77.80
78584;BME280;67880;46.082;18.234;2023-06-10T00:03:46;99162.25;;;19.17;77.87
78584;BME280;67880;46.082;18.234;2023-06-10T00:04:18;99167.69;;;19.17;78.40
78584;BME280;67880;46.082;18.234;2023-06-10T00:04:51;99168.97;;;19.15;78.41
78584;BME280;67880;46.082;18.234;2023-06-10T00:05:24;99158.91;;;19.15;78.13
78584;BME280;67880;46.082;18.234;2023-06-10T00:05:56;99164.59;;;19.14;78.15
78584;BME280;67880;46.082;18.234;2023-06-10T00:06:28;99166.56;;;19.07;78.55
78584;BME280;67880;46.082;18.234;2023-06-10T00:07:07;99168.06;;;19.03;78.98
78584;BME280;67880;46.082;18.234;2023-06-10T00:07:40;99165.56;;;19.01;78.82
78584;BME280;67880;46.082;18.234;2023-06-10T00:08:13;99169.97;;;19.02;79.14
78584;BME280;67880;46.082;18.234;2023-06-10T00:08:47;99163.28;;;18.98;79.17
78584;BME280;67880;46.082;18.234;2023-06-10T00:09:19;99160.22;;;18.94;79.07
78584;BME280;67880;46.082;18.234;2023-06-10T00:09:54;99165.66;;;18.94;79.41
78584;BME280;67880;46.082;18.234;2023-06-10T00:10:27;99167.31;;;18.96;79.36
78584;BME280;67880;46.082;18.234;2023-06-10T00:10:59;99168.13;;;18.96;79.34
78584;BME280;67880;46.082;18.234;2023-06-10T00:11:32;99165.19;;;18.98;79.99
78584;BME280;67880;46.082;18.234;2023-06-10T00:12:08;99160.56;;;18.98;80.09
78584;BME280;67880;46.082;18.234;2023-06-10T00:12:41;99169.38;;;19.00;79.99
78584;BME280;67880;46.082;18.234;2023-06-10T00:13:13;99166.00;;;18.98;79.56
78584;BME280;67880;46.082;18.234;2023-06-10T00:13:46;99164.34;;;18.97;79.91
78584;BME280;67880;46.082;18.234;2023-06-10T00:14:18;99162.94;;;18.94;79.57
78584;BME280;67880;46.082;18.234;2023-06-10T00:14:51;99167.06;;;18.97;79.85
78584;BME280;67880;46.082;18.234;2023-06-10T00:15:25;99166.72;;;18.93;80.46
78584;BME280;67880;46.082;18.234;2023-06-10T00:15:57;99157.50;;;18.94;80.63
78584;BME280;67880;46.082;18.234;2023-06-10T00:16:29;99163.13;;;18.93;80.18
78584;BME280;67880;46.082;18.234;2023-06-10T00:17:02;99160.22;;;18.94;80.40
78584;BME280;67880;46.082;18.234;2023-06-10T00:17:34;99154.16;;;18.92;79.88
78584;BME280;67880;46.082;18.234;2023-06-10T00:18:06;99164.81;;;18.94;79.99
78584;BME280;67880;46.082;18.234;2023-06-10T00:18:41;99167.75;;;18.92;80.15
78584;BME280;67880;46.082;18.234;2023-06-10T00:19:15;99158.41;;;18.88;80.18
78584;BME280;67880;46.082;18.234;2023-06-10T00:19:47;99162.19;;;18.87;80.39
78584;BME280;67880;46.082;18.234;2023-06-10T00:20:19;99162.78;;;18.89;80.20
78584;BME280;67880;46.082;18.234;2023-06-10T00:20:53;99157.31;;;18.89;80.39
78584;BME280;67880;46.082;18.234;2023-06-10T00:21:31;99159.00;;;18.90;80.27
78584;BME280;67880;46.082;18.234;2023-06-10T00:22:09;99160.88;;;18.90;80.33
78584;BME280;67880;46.082;18.234;2023-06-10T00:22:42;99162.09;;;18.94;80.56
78584;BME280;67880;46.082;18.234;2023-06-10T00:23:17;99161.03;;;18.95;80.48
78584;BME280;67880;46.082;18.234;2023-06-10T00:23:49;99163.13;;;18.93;80.12
78584;BME280;67880;46.082;18.234;2023-06-10T00:24:22;99163.13;;;18.93;80.67
78584;BME280;67880;46.082;18.234;2023-06-10T00:24:55;99163.59;;;18.90;80.11
78584;BME280;67880;46.082;18.234;2023-06-10T00:25:28;99161.09;;;18.88;80.80
78584;BME280;67880;46.082;18.234;2023-06-10T00:26:00;99165.25;;;18.91;80.68
78584;BME280;67880;46.082;18.234;2023-06-10T00:26:32;99164.34;;;18.97;79.95
78584;BME280;67880;46.082;18.234;2023-06-10T00:27:05;99162.03;;;19.01;79.81
78584;BME280;67880;46.082;18.234;2023-06-10T00:27:39;99163.06;;;19.00;79.56
78584;BME280;67880;46.082;18.234;2023-06-10T00:28:11;99158.25;;;19.02;79.81
78584;BME280;67880;46.082;18.234;2023-06-10T00:28:43;99164.53;;;19.02;80.19
78584;BME280;67880;46.082;18.234;2023-06-10T00:29:16;99171.03;;;19.01;79.77
78584;BME280;67880;46.082;18.234;2023-06-10T00:29:48;99168.91;;;19.03;80.33
78584;BME280;67880;46.082;18.234;2023-06-10T00:30:20;99156.13;;;19.04;80.23
78584;BME280;67880;46.082;18.234;2023-06-10T00:30:53;99164.44;;;19.09;79.58
78584;BME280;67880;46.082;18.234;2023-06-10T00:31:25;99163.38;;;19.10;79.61
78584;BME280;67880;46.082;18.234;2023-06-10T00:32:00;99167.75;;;19.11;79.83
78584;BME280;67880;46.082;18.234;2023-06-10T00:32:36;99167.75;;;19.11;79.32
78584;BME280;67880;46.082;18.234;2023-06-10T00:33:08;99167.41;;;19.07;79.80
78584;BME280;67880;46.082;18.234;2023-06-10T00:33:41;99172.84;;;19.07;80.22
78584;BME280;67880;46.082;18.234;2023-06-10T00:34:13;99171.78;;;19.08;79.72
78584;BME280;67880;46.082;18.234;2023-06-10T00:34:45;99168.22;;;19.08;79.35
78584;BME280;67880;46.082;18.234;2023-06-10T00:35:17;99163.22;;;19.05;79.44
78584;BME280;67880;46.082;18.234;2023-06-10T00:35:49;99168.31;;;19.01;79.80
78584;BME280;67880;46.082;18.234;2023-06-10T00:36:22;99172.69;;;19.02;80.03
78584;BME280;67880;46.082;18.234;2023-06-10T00:36:54;99173.28;;;19.04;79.40
78584;BME280;67880;46.082;18.234;2023-06-10T00:37:26;99172.97;;;18.94;80.24
78584;BME280;67880;46.082;18.234;2023-06-10T00:37:58;99171.53;;;18.91;80.52
78584;BME280;67880;46.082;18.234;2023-06-10T00:38:30;99169.44;;;18.93;80.60
78584;BME280;67880;46.082;18.234;2023-06-10T00:39:03;99167.16;;;18.90;80.21
78584;BME280;67880;46.082;18.234;2023-06-10T00:39:36;99171.16;;;18.88;80.54
78584;BME280;67880;46.082;18.234;2023-06-10T00:40:08;99168.88;;;18.85;80.52
78584;BME280;67880;46.082;18.234;2023-06-10T00:40:41;99168.63;;;18.86;80.79
78584;BME280;67880;46.082;18.234;2023-06-10T00:41:14;99164.03;;;18.87;80.68
78584;BME280;67880;46.082;18.234;2023-06-10T00:41:46;99167.88;;;18.79;81.60
78584;BME280;67880;46.082;18.234;2023-06-10T00:42:18;99163.97;;;18.75;81.28
78584;BME280;67880;46.082;18.234;2023-06-10T00:42:50;99174.22;;;18.73;81.25
78584;BME280;67880;46.082;18.234;2023-06-10T00:43:22;99166.53;;;18.70;81.35
78584;BME280;67880;46.082;18.234;2023-06-10T00:43:54;99171.72;;;18.72;81.37
78584;BME280;67880;46.082;18.234;2023-06-10T00:44:26;99165.69;;;18.70;81.60
78584;BME280;67880;46.082;18.234;2023-06-10T00:44:58;99166.53;;;18.70;81.78
78584;BME280;67880;46.082;18.234;2023-06-10T00:45:31;99168.41;;;18.70;81.70
78584;BME280;67880;46.082;18.234;2023-06-10T00:46:03;99168.63;;;18.68;81.88
78584;BME280;67880;46.082;18.234;2023-06-10T00:46:36;99166.13;;;18.66;82.50
78584;BME280;67880;46.082;18.234;2023-06-10T00:47:09;99161.50;;;18.67;82.31
78584;BME280;67880;46.082;18.234;2023-06-10T00:47:41;99169.47;;;18.69;82.55
78584;BME280;67880;46.082;18.234;2023-06-10T00:48:14;99163.41;;;18.66;82.43
78584;BME280;67880;46.082;18.234;2023-06-10T00:48:46;99169.94;;;18.59;82.62
78584;BME280;67880;46.082;18.234;2023-06-10T00:49:19;99171.41;;;18.61;81.91
78584;BME280;67880;46.082;18.234;2023-06-10T00:49:51;99168.88;;;18.60;82.63
78584;BME280;67880;46.082;18.234;2023-06-10T00:50:23;99169.69;;;18.60;82.66
78584;BME280;67880;46.082;18.234;2023-06-10T00:50:56;99165.97;;;18.61;82.66
78584;BME280;67880;46.082;18.234;2023-06-10T00:51:28;99169.66;;;18.67;81.42
78584;BME280;67880;46.082;18.234;2023-06-10T00:52:02;99169.25;;;18.70;81.67
78584;BME280;67880;46.082;18.234;2023-06-10T00:52:35;99164.88;;;18.69;81.12
78584;BME280;67880;46.082;18.234;2023-06-10T00:53:08;99166.28;;;18.72;80.90
78584;BME280;67880;46.082;18.234;2023-06-10T00:53:41;99172.97;;;18.76;80.76
78584;BME280;67880;46.082;18.234;2023-06-10T00:54:13;99167.59;;;18.69;81.08
78584;BME280;67880;46.082;18.234;2023-06-10T00:54:46;99159.88;;;18.59;81.67
78584;BME280;67880;46.082;18.234;2023-06-10T00:55:19;99170.41;;;18.56;81.72
78584;BME280;67880;46.082;18.234;2023-06-10T00:55:52;99180.56;;;18.60;81.81
78584;BME280;67880;46.082;18.234;2023-06-10T00:56:25;99167.88;;;18.54;82.14
78584;BME280;67880;46.082;18.234;2023-06-10T00:57:01;99173.31;;;18.54;81.49
78584;BME280;67880;46.082;18.234;2023-06-10T00:57:33;99166.03;;;18.55;82.05
78584;BME280;67880;46.082;18.234;2023-06-10T00:58:06;99169.69;;;18.60;81.44
78584;BME280;67880;46.082;18.234;2023-06-10T00:58:39;99166.78;;;18.62;81.21
78584;BME280;67880;46.082;18.234;2023-06-10T00:59:11;99169.50;;;18.62;81.90
78584;BME280;67880;46.082;18.234;2023-06-10T00:59:48;99165.50;;;18.64;81.73
78584;BME280;67880;46.082;18.234;2023-06-10T01:00:20;99164.25;;;18.60;81.63
78584;BME280;67880;46.082;18.234;2023-06-10T01:00:52;99165.31;;;18.59;81.58
78584;BME280;67880;46.082;18.234;2023-06-10T01:01:25;99163.44;;;18.60;81.38
78584;BME280;67880;46.082;18.234;2023-06-10T01:01:58;99165.16;;;18.54;81.91
78584;BME280;67880;46.082;18.234;2023-06-10T01:02:30;99164.13;;;18.55;81.57
78584;BME280;67880;46.082;18.234;2023-06-10T01:03:03;99166.97;;;18.60;82.04
78584;BME280;67880;46.082;18.234;2023-06-10T01:03:40;99167.63;;;18.62;81.33
78584;BME280;67880;46.082;18.234;2023-06-10T01:04:13;99169.56;;;18.55;81.57
78584;BME280;67880;46.082;18.234;2023-06-10T01:04:45;99172.47;;;18.54;82.19
78584;BME280;67880;46.082;18.234;2023-06-10T01:05:17;99169.56;;;18.55;82.04
78584;BME280;67880;46.082;18.234;2023-06-10T01:05:58;99158.13;;;18.47;82.36
78584;BME280;67880;46.082;18.234;2023-06-10T01:06:40;99168.34;;;18.51;82.08
78584;BME280;67880;46.082;18.234;2023-06-10T01:07:30;99161.31;;;18.44;82.68
78584;BME280;67880;46.082;18.234;2023-06-10T01:08:13;99167.16;;;18.40;82.61
78584;BME280;67880;46.082;18.234;2023-06-10T01:08:57;99161.59;;;18.35;83.20
78584;BME280;67880;46.082;18.234;2023-06-10T01:09:40;99164.31;;;18.35;83.60
78584;BME280;67880;46.082;18.234;2023-06-10T01:10:28;99168.22;;;18.39;83.45
78584;BME280;67880;46.082;18.234;2023-06-10T01:11:04;99159.69;;;18.36;83.03
78584;BME280;67880;46.082;18.234;2023-06-10T01:12:05;99159.75;;;18.29;83.36
78584;BME280;67880;46.082;18.234;2023-06-10T01:12:45;99161.41;;;18.30;83.87
78584;BME280;67880;46.082;18.234;2023-06-10T01:13:22;99158.06;;;18.28;83.54
78584;BME280;67880;46.082;18.234;2023-06-10T01:14:01;99166.91;;;18.24;83.91
78584;BME280;67880;46.082;18.234;2023-06-10T01:14:36;99166.25;;;18.22;84.24
78584;BME280;67880;46.082;18.234;2023-06-10T01:15:09;99163.56;;;18.22;84.54
78584;BME280;67880;46.082;18.234;2023-06-10T01:15:43;99170.22;;;18.26;83.65
78584;BME280;67880;46.082;18.234;2023-06-10T01:16:15;99157.03;;;18.29;83.75
78584;BME280;67880;46.082;18.234;2023-06-10T01:16:48;99158.06;;;18.28;84.53
78584;BME280;67880;46.082;18.234;2023-06-10T01:17:22;99157.47;;;18.26;83.99
78584;BME280;67880;46.082;18.234;2023-06-10T01:18:31;99162.91;;;18.26;83.82
78584;BME280;67880;46.082;18.234;2023-06-10T01:19:03;99164.56;;;18.27;83.41
78584;BME280;67880;46.082;18.234;2023-06-10T01:19:35;99161.41;;;18.30;83.65
78584;BME280;67880;46.082;18.234;2023-06-10T01:20:08;99159.75;;;18.29;83.88
78584;BME280;67880;46.082;18.234;2023-06-10T01:20:44;99155.19;;;18.23;84.14
78584;BME280;67880;46.082;18.234;2023-06-10T01:21:22;99157.69;;;18.25;83.66
78584;BME280;67880;46.082;18.234;2023-06-10T01:21:57;99157.69;;;18.25;83.49
78584;BME280;67880;46.082;18.234;2023-06-10T01:22:32;99152.91;;;18.20;83.76
78584;BME280;67880;46.082;18.234;2023-06-10T01:23:10;99161.47;;;18.24;83.58
78584;BME280;67880;46.082;18.234;2023-06-10T01:23:42;99154.56;;;18.21;83.47
78584;BME280;67880;46.082;18.234;2023-06-10T01:24:15;99160.78;;;18.28;83.11
78584;BME280;67880;46.082;18.234;2023-06-10T01:24:50;99163.94;;;18.25;83.12
78584;BME280;67880;46.082;18.234;2023-06-10T01:25:22;99157.91;;;18.23;83.06
78584;BME280;67880;46.082;18.234;2023-06-10T01:26:06;99160.63;;;18.23;83.50
78584;BME280;67880;46.082;18.234;2023-06-10T01:26:42;99157.91;;;18.23;83.16
78584;BME280;67880;46.082;18.234;2023-06-10T01:27:17;99158.94;;;18.22;82.79
78584;BME280;67880;46.082;18.234;2023-06-10T01:28:45;99155.19;;;18.23;83.26
78584;BME280;67880;46.082;18.234;2023-06-10T01:29:54;99154.56;;;18.21;83.22
78584;BME280;67880;46.082;18.234;2023-06-10T01:30:20;99156.69;;;18.19;83.48
78584;BME280;67880;46.082;18.234;2023-06-10T01:31:54;99155.84;;;18.19;83.10
78584;BME280;67880;46.082;18.234;2023-06-10T01:32:37;99155.41;;;18.22;83.35
78584;BME280;67880;46.082;18.234;2023-06-10T01:33:10;99167.09;;;18.22;83.69
78584;BME280;67880;46.082;18.234;2023-06-10T01:33:48;99167.97;;;18.23;83.80
78584;BME280;67880;46.082;18.234;2023-06-10T01:34:23;99166.25;;;18.22;83.11
78584;BME280;67880;46.082;18.234;2023-06-10T01:34:57;99159.41;;;18.19;83.42
78584;BME280;67880;46.082;18.234;2023-06-10T01:35:31;99162.53;;;18.16;83.25
78584;BME280;67880;46.082;18.234;2023-06-10T01:36:04;99165.66;;;18.20;83.67
78584;BME280;67880;46.082;18.234;2023-06-10T01:36:38;99161.66;;;18.22;83.39
78584;BME280;67880;46.082;18.234;2023-06-10T01:37:13;99162.28;;;18.24;82.72
78584;BME280;67880;46.082;18.234;2023-06-10T01:37:48;99170.03;;;18.21;83.38
78584;BME280;67880;46.082;18.234;2023-06-10T01:38:25;99165.44;;;18.21;83.14
78584;BME280;67880;46.082;18.234;2023-06-10T01:38:59;99163.56;;;18.22;82.67
78584;BME280;67880;46.082;18.234;2023-06-10T01:39:32;99164.44;;;18.16;82.85
78584;BME280;67880;46.082;18.234;2023-06-10T01:40:07;99163.81;;;18.13;83.34
78584;BME280;67880;46.082;18.234;2023-06-10T01:40:41;99170.13;;;18.07;83.75
78584;BME280;67880;46.082;18.234;2023-06-10T01:41:16;99162.00;;;18.07;83.64
78584;BME280;67880;46.082;18.234;2023-06-10T01:41:49;99169.91;;;18.09;83.99
78584;BME280;67880;46.082;18.234;2023-06-10T01:42:21;99165.94;;;18.11;83.88
78584;BME280;67880;46.082;18.234;2023-06-10T01:42:53;99165.94;;;18.11;83.71
78584;BME280;67880;46.082;18.234;2023-06-10T01:43:25;99169.03;;;18.15;83.05
78584;BME280;67880;46.082;18.234;2023-06-10T01:43:57;99171.31;;;18.18;83.03
78584;BME280;67880;46.082;18.234;2023-06-10T01:44:29;99174.28;;;18.17;83.12
78584;BME280;67880;46.082;18.234;2023-06-10T01:45:01;99172.22;;;18.12;83.57
78584;BME280;67880;46.082;18.234;2023-06-10T01:45:34;99168.25;;;18.08;83.31
78584;BME280;67880;46.082;18.234;2023-06-10T01:46:06;99170.97;;;18.08;83.77
78584;BME280;67880;46.082;18.234;2023-06-10T01:46:38;99166.38;;;18.08;83.22
78584;BME280;67880;46.082;18.234;2023-06-10T01:47:11;99173.47;;;18.09;83.81
78584;BME280;67880;46.082;18.234;2023-06-10T01:47:43;99167.00;;;18.10;83.73
78584;BME280;67880;46.082;18.234;2023-06-10T01:48:15;99171.81;;;18.08;83.31
78584;BME280;67880;46.082;18.234;2023-06-10T01:48:47;99170.97;;;18.08;83.21
78584;BME280;67880;46.082;18.234;2023-06-10T01:49:20;99169.31;;;18.07;83.84
78584;BME280;67880;46.082;18.234;2023-06-10T01:49:53;99168.47;;;18.06;83.59
78584;BME280;67880;46.082;18.234;2023-06-10T01:50:25;99168.25;;;18.08;83.49
78584;BME280;67880;46.082;18.234;2023-06-10T01:50:57;99173.09;;;18.06;84.04
78584;BME280;67880;46.082;18.234;2023-06-10T01:51:29;99167.44;;;18.07;83.58
78584;BME280;67880;46.082;18.234;2023-06-10T01:52:03;99169.75;;;18.04;83.46
78584;BME280;67880;46.082;18.234;2023-06-10T01:52:35;99164.75;;;18.01;83.16
78584;BME280;67880;46.082;18.234;2023-06-10T01:53:09;99160.38;;;18.00;83.33
78584;BME280;67880;46.082;18.234;2023-06-10T01:53:41;99163.88;;;18.07;82.67
78584;BME280;67880;46.082;18.234;2023-06-10T01:54:13;99159.69;;;18.11;83.13
78584;BME280;67880;46.082;18.234;2023-06-10T01:54:45;99168.25;;;18.08;83.07
78584;BME280;67880;46.082;18.234;2023-06-10T01:55:17;99171.44;;;18.05;82.83
78584;BME280;67880;46.082;18.234;2023-06-10T01:55:49;99168.72;;;18.05;83.11
78584;BME280;67880;46.082;18.234;2023-06-10T01:56:22;99171.19;;;18.06;82.75
78584;BME280;67880;46.082;18.234;2023-06-10T01:56:54;99165.75;;;18.06;82.90
78584;BME280;67880;46.082;18.234;2023-06-10T01:57:26;99163.88;;;18.07;82.78
78584;BME280;67880;46.082;18.234;2023-06-10T01:57:58;99166.81;;;18.05;82.91
78584;BME280;67880;46.082;18.234;2023-06-10T01:58:30;99166.22;;;18.03;83.11
78584;BME280;67880;46.082;18.234;2023-06-10T01:59:02;99168.31;;;18.01;83.15
78584;BME280;67880;46.082;18.234;2023-06-10T01:59:34;99168.94;;;18.03;83.25
78584;BME280;67880;46.082;18.234;2023-06-10T02:00:08;99169.31;;;18.07;83.00
78584;BME280;67880;46.082;18.234;2023-06-10T02:00:40;99165.53;;;18.08;83.18
78584;BME280;67880;46.082;18.234;2023-06-10T02:01:13;99158.09;;;17.97;83.17
78584;BME280;67880;46.082;18.234;2023-06-10T02:01:45;99168.81;;;17.92;83.69
78584;BME280;67880;46.082;18.234;2023-06-10T02:02:17;99159.03;;;17.84;83.68
78584;BME280;67880;46.082;18.234;2023-06-10T02:02:49;99161.75;;;17.84;84.09
78584;BME280;67880;46.082;18.234;2023-06-10T02:03:21;99170.50;;;17.86;83.71
78584;BME280;67880;46.082;18.234;2023-06-10T02:03:54;99165.72;;;17.81;83.94
78584;BME280;67880;46.082;18.234;2023-06-10T02:04:26;99173.03;;;17.81;83.55
78584;BME280;67880;46.082;18.234;2023-06-10T02:04:58;99172.44;;;17.79;84.45
78584;BME280;67880;46.082;18.234;2023-06-10T02:05:29;99169.31;;;17.75;84.19
78584;BME280;67880;46.082;18.234;2023-06-10T02:06:02;99169.06;;;17.77;84.51
78584;BME280;67880;46.082;18.234;2023-06-10T02:06:33;99171.59;;;17.78;85.01
78584;BME280;67880;46.082;18.234;2023-06-10T02:07:07;99172.81;;;17.82;84.43
78584;BME280;67880;46.082;18.234;2023-06-10T02:07:39;99175.34;;;17.77;84.66
78584;BME280;67880;46.082;18.234;2023-06-10T02:08:11;99172.63;;;17.77;84.29
78584;BME280;67880;46.082;18.234;2023-06-10T02:08:43;99172.63;;;17.84;84.24
78584;BME280;67880;46.082;18.234;2023-06-10T02:09:15;99170.72;;;17.84;84.29
78584;BME280;67880;46.082;18.234;2023-06-10T02:09:47;99166.16;;;17.78;83.78
78584;BME280;67880;46.082;18.234;2023-06-10T02:10:19;99169.31;;;17.75;84.31
78584;BME280;67880;46.082;18.234;2023-06-10T02:10:51;99171.78;;;17.77;84.75
78584;BME280;67880;46.082;18.234;2023-06-10T02:11:23;99170.34;;;17.74;84.77
78584;BME280;67880;46.082;18.234;2023-06-10T02:11:55;99173.53;;;17.71;84.74
78584;BME280;67880;46.082;18.234;2023-06-10T02:12:27;99173.06;;;17.68;84.67
78584;BME280;67880;46.082;18.234;2023-06-10T02:12:59;99177.69;;;17.67;84.84
78584;BME280;67880;46.082;18.234;2023-06-10T02:13:31;99177.91;;;17.72;84.79
78584;BME280;67880;46.082;18.234;2023-06-10T02:14:03;99179.13;;;17.70;84.94
78584;BME280;67880;46.082;18.234;2023-06-10T02:14:35;99173.28;;;17.73;84.18
78584;BME280;67880;46.082;18.234;2023-06-10T02:15:07;99177.06;;;17.72;84.77
78584;BME280;67880;46.082;18.234;2023-06-10T02:15:40;99176.84;;;17.67;83.84
78584;BME280;67880;46.082;18.234;2023-06-10T02:16:12;99177.69;;;17.67;84.26
78584;BME280;67880;46.082;18.234;2023-06-10T02:16:44;99177.91;;;17.66;84.23
78584;BME280;67880;46.082;18.234;2023-06-10T02:17:18;99174.34;;;17.65;84.47
78584;BME280;67880;46.082;18.234;2023-06-10T02:17:52;99174.34;;;17.65;84.20
78584;BME280;67880;46.082;18.234;2023-06-10T02:18:24;99173.53;;;17.65;84.00
78584;BME280;67880;46.082;18.234;2023-06-10T02:18:56;99172.03;;;17.69;84.68
78584;BME280;67880;46.082;18.234;2023-06-10T02:19:27;99177.69;;;17.67;84.46
78584;BME280;67880;46.082;18.234;2023-06-10T02:20:00;99179.13;;;17.70;83.67
78584;BME280;67880;46.082;18.234;2023-06-10T02:20:36;99174.75;;;17.69;84.47
78584;BME280;67880;46.082;18.234;2023-06-10T02:21:09;99180.63;;;17.66;84.25
78584;BME280;67880;46.082;18.234;2023-06-10T02:21:41;99170.19;;;17.63;84.34
78584;BME280;67880;46.082;18.234;2023-06-10T02:22:13;99176.84;;;17.67;84.46
78584;BME280;67880;46.082;18.234;2023-06-10T02:22:45;99171.41;;;17.67;84.40
78584;BME280;67880;46.082;18.234;2023-06-10T02:23:17;99179.94;;;17.70;84.29
78584;BME280;67880;46.082;18.234;2023-06-10T02:23:49;99172.84;;;17.69;84.05
78584;BME280;67880;46.082;18.234;2023-06-10T02:24:21;99173.28;;;17.73;84.04
78584;BME280;67880;46.082;18.234;2023-06-10T02:24:53;99171.63;;;17.72;83.88
78584;BME280;67880;46.082;18.234;2023-06-10T02:25:25;99172.25;;;17.74;84.19
78584;BME280;67880;46.082;18.234;2023-06-10T02:25:57;99169.31;;;17.75;84.00
78584;BME280;67880;46.082;18.234;2023-06-10T02:26:29;99170.13;;;17.76;83.68
78584;BME280;67880;46.082;18.234;2023-06-10T02:27:01;99168.09;;;17.71;83.95
78584;BME280;67880;46.082;18.234;2023-06-10T02:27:35;99173.28;;;17.73;84.26
78584;BME280;67880;46.082;18.234;2023-06-10T02:28:07;99166.38;;;17.70;84.28
78584;BME280;67880;46.082;18.234;2023-06-10T02:28:42;99162.00;;;17.69;84.09
78584;BME280;67880;46.082;18.234;2023-06-10T02:29:15;99167.03;;;17.72;83.82
78584;BME280;67880;46.082;18.234;2023-06-10T02:29:47;99168.09;;;17.71;84.26
78584;BME280;67880;46.082;18.234;2023-06-10T02:30:19;99164.09;;;17.67;83.85
78584;BME280;67880;46.082;18.234;2023-06-10T02:30:51;99165.38;;;17.65;84.05
78584;BME280;67880;46.082;18.234;2023-06-10T02:31:23;99168.94;;;17.65;84.33
78584;BME280;67880;46.082;18.234;2023-06-10T02:31:57;99168.09;;;17.65;84.10
78584;BME280;67880;46.082;18.234;2023-06-10T02:32:29;99170.81;;;17.65;84.76
78584;BME280;67880;46.082;18.234;2023-06-10T02:33:01;99167.28;;;17.57;84.63
78584;BME280;67880;46.082;18.234;2023-06-10T02:33:33;99171.03;;;17.56;84.86
78584;BME280;67880;46.082;18.234;2023-06-10T02:34:05;99162.50;;;17.53;84.80
78584;BME280;67880;46.082;18.234;2023-06-10T02:34:37;99168.56;;;17.55;84.72
78584;BME280;67880;46.082;18.234;2023-06-10T02:35:09;99169.97;;;17.57;84.78
78584;BME280;67880;46.082;18.234;2023-06-10T02:35:44;99173.94;;;17.62;84.52
78584;BME280;67880;46.082;18.234;2023-06-10T02:36:16;99167.69;;;17.61;84.37
78584;BME280;67880;46.082;18.234;2023-06-10T02:36:49;99166.63;;;17.62;84.62
78584;BME280;67880;46.082;18.234;2023-06-10T02:37:23;99169.56;;;17.60;84.65
78584;BME280;67880;46.082;18.234;2023-06-10T02:37:55;99167.69;;;17.61;84.73
78584;BME280;67880;46.082;18.234;2023-06-10T02:38:27;99168.75;;;17.60;84.43
78584;BME280;67880;46.082;18.234;2023-06-10T02:38:59;99170.81;;;17.58;84.95
78584;BME280;67880;46.082;18.234;2023-06-10T02:39:31;99167.31;;;17.51;84.77
78584;BME280;67880;46.082;18.234;2023-06-10T02:40:03;99167.16;;;17.46;85.05
78584;BME280;67880;46.082;18.234;2023-06-10T02:40:35;99171.53;;;17.47;85.50
78584;BME280;67880;46.082;18.234;2023-06-10T02:41:08;99170.06;;;17.44;85.40
78584;BME280;67880;46.082;18.234;2023-06-10T02:41:40;99159.59;;;17.48;85.61
78584;BME280;67880;46.082;18.234;2023-06-10T02:42:11;99173.41;;;17.46;85.57
78584;BME280;67880;46.082;18.234;2023-06-10T02:42:43;99166.28;;;17.52;85.71
78584;BME280;67880;46.082;18.234;2023-06-10T02:43:16;99176.09;;;17.53;84.98
78584;BME280;67880;46.082;18.234;2023-06-10T02:43:47;99167.09;;;17.52;85.39
78584;BME280;67880;46.082;18.234;2023-06-10T02:44:20;99171.25;;;17.55;85.36
78584;BME280;67880;46.082;18.234;2023-06-10T02:44:52;99170.22;;;17.56;84.53
78584;BME280;67880;46.082;18.234;2023-06-10T02:45:24;99165.84;;;17.55;84.86
78584;BME280;67880;46.082;18.234;2023-06-10T02:45:56;99170.66;;;17.53;85.13
78584;BME280;67880;46.082;18.234;2023-06-10T02:46:28;99168.78;;;17.53;85.62
78584;BME280;67880;46.082;18.234;2023-06-10T02:47:00;99173.38;;;17.53;85.72
78584;BME280;67880;46.082;18.234;2023-06-10T02:47:32;99167.91;;;17.59;84.83
78584;BME280;67880;46.082;18.234;2023-06-10T02:48:05;99174.34;;;17.65;84.73
78584;BME280;67880;46.082;18.234;2023-06-10T02:48:41;99172.47;;;17.66;84.91
78584;BME280;67880;46.082;18.234;2023-06-10T02:49:14;99177.50;;;17.62;84.75
78584;BME280;67880;46.082;18.234;2023-06-10T02:49:46;99178.97;;;17.58;84.75
78584;BME280;67880;46.082;18.234;2023-06-10T02:50:18;99169.97;;;17.57;84.77
78584;BME280;67880;46.082;18.234;2023-06-10T02:50:50;99177.06;;;17.65;85.14
78584;BME280;67880;46.082;18.234;2023-06-10T02:51:22;99169.94;;;17.64;84.19
78584;BME280;67880;46.082;18.234;2023-06-10T02:51:54;99170.19;;;17.63;85.17
78584;BME280;67880;46.082;18.234;2023-06-10T02:52:28;99176.66;;;17.62;84.85
78584;BME280;67880;46.082;18.234;2023-06-10T02:53:00;99175.81;;;17.61;84.48
78584;BME280;67880;46.082;18.234;2023-06-10T02:53:32;99176.25;;;17.58;84.54
78584;BME280;67880;46.082;18.234;2023-06-10T02:54:04;99172.53;;;17.52;85.08
78584;BME280;67880;46.082;18.234;2023-06-10T02:54:37;99174.59;;;17.57;84.52
78584;BME280;67880;46.082;18.234;2023-06-10T02:55:09;99170.44;;;17.54;84.80
78584;BME280;67880;46.082;18.234;2023-06-10T02:55:41;99175.00;;;17.60;84.52
78584;BME280;67880;46.082;18.234;2023-06-10T02:56:16;99168.56;;;17.55;84.38
78584;BME280;67880;46.082;18.234;2023-06-10T02:56:48;99167.69;;;17.61;84.92
78584;BME280;67880;46.082;18.234;2023-06-10T02:57:20;99176.25;;;17.58;84.95